createdAt,value
2022-08-26T00:00:56.629Z,23.85
2022-08-26T00:03:26.478Z,23.81
2022-08-26T00:05:56.276Z,23.78
2022-08-26T00:08:25.518Z,23.73
2022-08-26T00:10:54.100Z,23.71
2022-08-26T00:13:22.569Z,23.68
2022-08-26T00:15:51.325Z,23.65
2022-08-26T00:18:22.711Z,23.60
2022-08-26T00:20:52.303Z,23.57
2022-08-26T00:23:24.273Z,23.55
2022-08-26T00:25:53.454Z,23.53
2022-08-26T00:28:22.939Z,23.49
2022-08-26T00:30:52.403Z,23.43
2022-08-26T00:33:23.074Z,23.37
2022-08-26T00:35:51.804Z,23.29
2022-08-26T00:38:22.858Z,23.21
2022-08-26T00:40:56.218Z,23.17
2022-08-26T00:43:26.390Z,23.17
2022-08-26T00:46:00.543Z,23.20
2022-08-26T00:48:34.732Z,23.19
2022-08-26T00:51:16.803Z,23.17
2022-08-26T00:53:52.121Z,23.06
2022-08-26T00:56:24.432Z,22.98
2022-08-26T00:58:53.221Z,22.80
2022-08-26T01:01:23.139Z,22.64
2022-08-26T01:03:55.488Z,22.55
2022-08-26T01:06:25.964Z,22.41
2022-08-26T01:08:54.969Z,22.35
2022-08-26T01:11:24.003Z,22.15
2022-08-26T01:13:54.642Z,22.15
2022-08-26T01:16:24.742Z,22.15
2022-08-26T01:19:00.702Z,22.15
2022-08-26T01:21:40.499Z,22.19
2022-08-26T01:24:12.201Z,22.21
2022-08-26T01:26:44.698Z,22.20
2022-08-26T01:29:19.181Z,22.13
2022-08-26T01:31:55.349Z,22.12
2022-08-26T01:34:27.576Z,22.10
2022-08-26T01:37:04.695Z,22.06
2022-08-26T01:39:36.813Z,22.01
2022-08-26T01:42:10.396Z,21.97
2022-08-26T01:44:46.142Z,21.92
2022-08-26T01:47:18.299Z,21.90
2022-08-26T01:49:51.365Z,21.90
2022-08-26T01:52:27.577Z,21.90
2022-08-26T01:54:58.698Z,21.87
2022-08-26T01:57:28.333Z,21.84
2022-08-26T02:00:00.204Z,21.80
2022-08-26T02:02:29.426Z,21.74
2022-08-26T02:05:02.872Z,21.72
2022-08-26T02:07:33.344Z,21.71
2022-08-26T02:10:03.297Z,21.67
2022-08-26T02:12:32.562Z,21.63
2022-08-26T02:15:06.435Z,21.61
2022-08-26T02:17:40.135Z,21.58
2022-08-26T02:20:13.430Z,21.54
2022-08-26T02:22:45.181Z,21.55
2022-08-26T02:25:22.977Z,21.53
2022-08-26T02:27:53.201Z,21.50
2022-08-26T02:30:26.043Z,21.44
2022-08-26T02:32:59.549Z,21.44
2022-08-26T02:35:28.343Z,21.37
2022-08-26T02:37:59.208Z,21.37
2022-08-26T02:40:33.604Z,21.37
2022-08-26T02:43:05.032Z,21.34
2022-08-26T02:45:37.531Z,21.28
2022-08-26T02:48:11.351Z,21.23
2022-08-26T02:50:40.608Z,21.17
2022-08-26T02:53:13.517Z,21.13
2022-08-26T02:55:43.949Z,21.16
2022-08-26T02:58:12.411Z,21.22
2022-08-26T03:00:52.749Z,21.25
2022-08-26T03:03:23.709Z,21.29
2022-08-26T03:05:52.762Z,21.33
2022-08-26T03:08:23.090Z,21.32
2022-08-26T03:10:52.993Z,21.35
2022-08-26T03:13:21.500Z,21.33
2022-08-26T03:15:50.127Z,21.31
2022-08-26T03:18:18.548Z,21.30
2022-08-26T03:20:49.055Z,21.25
2022-08-26T03:23:17.510Z,21.21
2022-08-26T03:25:52.488Z,21.18
2022-08-26T03:28:21.588Z,21.16
2022-08-26T03:30:49.254Z,21.13
2022-08-26T03:33:19.053Z,21.07
2022-08-26T03:35:50.692Z,21.05
2022-08-26T03:38:25.111Z,21.03
2022-08-26T03:40:55.593Z,21.03
2022-08-26T03:43:26.767Z,21.01
2022-08-26T03:45:55.253Z,20.97
2022-08-26T03:48:23.659Z,20.93
2022-08-26T03:50:52.304Z,20.92
2022-08-26T03:53:21.870Z,20.89
2022-08-26T03:55:52.010Z,20.87
2022-08-26T03:58:24.121Z,20.86
2022-08-26T04:00:55.374Z,20.81
2022-08-26T04:03:38.597Z,20.77
2022-08-26T04:06:08.091Z,20.72
2022-08-26T04:08:38.121Z,20.68
2022-08-26T04:11:07.771Z,20.63
2022-08-26T04:13:37.642Z,20.49
2022-08-26T04:16:07.481Z,20.38
2022-08-26T04:18:44.473Z,20.27
2022-08-26T04:21:15.619Z,20.24
2022-08-26T04:23:47.694Z,20.17
2022-08-26T04:26:17.393Z,20.13
2022-08-26T04:28:47.472Z,20.13
2022-08-26T04:31:17.818Z,20.13
2022-08-26T04:33:51.088Z,20.15
2022-08-26T04:36:20.324Z,20.22
2022-08-26T04:38:50.635Z,20.27
2022-08-26T04:41:20.763Z,20.28
2022-08-26T04:43:50.839Z,20.30
2022-08-26T04:46:24.361Z,20.29
2022-08-26T04:48:54.488Z,20.28
2022-08-26T04:51:28.039Z,20.26
2022-08-26T04:53:57.502Z,20.25
2022-08-26T04:56:27.626Z,20.20
2022-08-26T04:58:58.276Z,20.12
2022-08-26T05:01:28.411Z,20.05
2022-08-26T05:03:57.915Z,20.00
2022-08-26T05:06:26.481Z,19.93
2022-08-26T05:08:55.691Z,19.88
2022-08-26T05:11:24.829Z,19.81
2022-08-26T05:13:53.348Z,19.73
2022-08-26T05:16:23.346Z,19.67
2022-08-26T05:18:52.900Z,19.61
2022-08-26T05:21:23.942Z,19.60
2022-08-26T05:23:54.824Z,19.64
2022-08-26T05:26:24.651Z,19.71
2022-08-26T05:28:55.304Z,19.81
2022-08-26T05:31:29.729Z,19.85
2022-08-26T05:33:59.580Z,19.85
2022-08-26T05:36:35.358Z,19.78
2022-08-26T05:39:06.411Z,19.70
2022-08-26T05:41:38.297Z,19.66
2022-08-26T05:44:10.342Z,19.64
2022-08-26T05:46:41.773Z,19.63
2022-08-26T05:49:12.294Z,19.64
2022-08-26T05:51:41.793Z,19.59
2022-08-26T05:54:10.765Z,19.60
2022-08-26T05:56:39.815Z,19.63
2022-08-26T05:59:16.613Z,19.60
2022-08-26T06:01:51.209Z,19.55
2022-08-26T06:04:20.039Z,19.54
2022-08-26T06:06:48.761Z,19.59
2022-08-26T06:09:18.311Z,19.60
2022-08-26T06:11:46.953Z,19.61
2022-08-26T06:14:17.811Z,19.65
2022-08-26T06:16:47.111Z,19.66
2022-08-26T06:19:17.461Z,19.65
2022-08-26T06:21:51.361Z,19.64
2022-08-26T06:24:41.125Z,19.65
2022-08-26T06:27:13.632Z,19.66
2022-08-26T06:29:42.902Z,19.69
2022-08-26T06:32:11.828Z,19.70
2022-08-26T06:34:41.729Z,19.70
2022-08-26T06:37:10.149Z,19.71
2022-08-26T06:39:41.158Z,19.72
2022-08-26T06:42:10.994Z,19.71
2022-08-26T06:44:41.644Z,19.75
2022-08-26T06:47:13.226Z,19.75
2022-08-26T06:49:44.345Z,19.77
2022-08-26T06:52:12.793Z,19.81
2022-08-26T06:54:43.199Z,19.86
2022-08-26T06:57:14.364Z,19.89
2022-08-26T06:59:45.330Z,19.90
2022-08-26T07:02:14.669Z,19.96
2022-08-26T07:04:44.864Z,19.98
2022-08-26T07:07:17.011Z,20.02
2022-08-26T07:09:46.904Z,20.03
2022-08-26T07:12:18.276Z,20.13
2022-08-26T07:14:47.557Z,20.17
2022-08-26T07:17:17.050Z,20.17
2022-08-26T07:19:49.815Z,20.20
2022-08-26T07:22:18.772Z,20.31
2022-08-26T07:24:47.247Z,20.34
2022-08-26T07:27:17.716Z,20.33
2022-08-26T07:29:46.611Z,20.37
2022-08-26T07:32:17.519Z,20.41
2022-08-26T07:34:48.082Z,20.48
2022-08-26T07:37:16.801Z,20.48
2022-08-26T07:39:46.344Z,20.48
2022-08-26T07:42:18.501Z,20.51
2022-08-26T07:44:47.281Z,20.56
2022-08-26T07:47:24.760Z,20.59
2022-08-26T07:49:57.746Z,20.63
2022-08-26T07:52:30.034Z,20.64
2022-08-26T07:55:01.646Z,20.66
2022-08-26T07:57:31.030Z,20.69
2022-08-26T08:00:00.239Z,20.72
2022-08-26T08:02:30.897Z,20.75
2022-08-26T08:05:00.960Z,20.75
2022-08-26T08:07:44.256Z,20.79
2022-08-26T08:10:19.000Z,20.90
2022-08-26T08:12:50.752Z,20.92
2022-08-26T08:15:24.949Z,20.95
2022-08-26T08:17:55.576Z,20.95
2022-08-26T08:20:29.874Z,20.99
2022-08-26T08:22:58.515Z,21.00
2022-08-26T08:25:27.007Z,21.01
2022-08-26T08:27:55.468Z,21.12
2022-08-26T08:30:25.616Z,21.11
2022-08-26T08:32:54.877Z,21.11
2022-08-26T08:35:26.324Z,21.12
2022-08-26T08:37:56.590Z,21.13
2022-08-26T08:40:27.887Z,21.11
2022-08-26T08:43:03.748Z,21.16
2022-08-26T08:45:37.867Z,21.22
2022-08-26T08:48:16.908Z,21.25
2022-08-26T08:50:48.812Z,21.36
2022-08-26T08:53:25.090Z,21.41
2022-08-26T08:56:07.676Z,21.44
2022-08-26T08:58:53.555Z,21.45
2022-08-26T09:01:46.780Z,21.50
2022-08-26T09:05:08.224Z,21.59
2022-08-26T09:07:40.530Z,21.64
2022-08-26T09:10:30.657Z,21.68
2022-08-26T09:13:00.444Z,21.73
2022-08-26T09:15:41.225Z,21.80
2022-08-26T09:18:22.068Z,21.87
2022-08-26T09:20:57.650Z,22.04
2022-08-26T09:23:27.145Z,22.16
2022-08-26T09:26:02.579Z,22.24
2022-08-26T09:28:32.449Z,22.38
2022-08-26T09:31:14.073Z,22.54
2022-08-26T09:33:43.529Z,22.66
2022-08-26T09:36:22.825Z,22.84
2022-08-26T09:38:55.072Z,23.02
2022-08-26T09:41:32.122Z,23.08
2022-08-26T09:44:17.814Z,23.22
2022-08-26T09:46:55.808Z,23.33
2022-08-26T09:49:36.010Z,23.49
2022-08-26T09:52:21.337Z,23.70
2022-08-26T09:55:04.916Z,23.74
2022-08-26T09:57:37.814Z,23.84
2022-08-26T10:00:31.200Z,24.00
2022-08-26T10:03:02.620Z,24.23
2022-08-26T10:05:40.266Z,24.23
2022-08-26T10:08:29.964Z,24.32
2022-08-26T10:11:01.786Z,24.37
2022-08-26T10:13:37.079Z,24.44
2022-08-26T10:16:17.784Z,24.56
2022-08-26T10:18:59.446Z,24.59
2022-08-26T10:21:35.034Z,24.79
2022-08-26T10:24:06.029Z,24.75
2022-08-26T10:26:43.473Z,24.73
2022-08-26T10:29:19.897Z,24.81
2022-08-26T10:31:53.414Z,24.90
2022-08-26T10:34:27.393Z,24.98
2022-08-26T10:37:14.525Z,25.02
2022-08-26T10:39:57.008Z,25.01
2022-08-26T10:42:35.113Z,25.02
2022-08-26T10:45:11.786Z,25.08
2022-08-26T10:47:51.441Z,25.24
2022-08-26T10:50:21.189Z,25.34
2022-08-26T10:53:01.309Z,25.47
2022-08-26T10:55:38.254Z,25.57
2022-08-26T10:58:26.141Z,25.88
2022-08-26T11:01:24.268Z,25.95
2022-08-26T11:04:04.296Z,26.01
2022-08-26T11:06:33.072Z,26.23
2022-08-26T11:09:08.607Z,26.39
2022-08-26T11:11:50.059Z,26.55
2022-08-26T11:14:42.021Z,26.72
2022-08-26T11:18:00.037Z,26.80
2022-08-26T11:20:39.288Z,26.88
2022-08-26T11:23:50.393Z,27.03
2022-08-26T11:26:35.915Z,26.96
2022-08-26T11:29:13.663Z,26.85
2022-08-26T11:31:57.653Z,26.96
2022-08-26T11:34:57.925Z,27.25
2022-08-26T11:37:36.101Z,27.27
2022-08-26T11:40:12.955Z,27.40
2022-08-26T11:42:44.895Z,27.42
2022-08-26T11:45:22.403Z,27.52
2022-08-26T11:47:52.346Z,27.63
2022-08-26T11:50:26.104Z,27.70
2022-08-26T11:53:01.708Z,27.72
2022-08-26T11:55:33.481Z,27.75
2022-08-26T11:58:04.832Z,27.79
2022-08-26T12:00:38.482Z,27.87
2022-08-26T12:03:20.019Z,27.90
2022-08-26T12:05:55.037Z,28.06
2022-08-26T12:08:31.099Z,28.15
2022-08-26T12:11:08.564Z,28.20
2022-08-26T12:13:39.297Z,28.41
2022-08-26T12:16:08.528Z,28.62
2022-08-26T12:18:39.400Z,28.69
2022-08-26T12:21:22.342Z,28.82
2022-08-26T12:23:55.632Z,28.95
2022-08-26T12:26:28.257Z,28.98
2022-08-26T12:29:00.025Z,29.07
2022-08-26T12:31:32.640Z,29.19
2022-08-26T12:34:04.515Z,29.30
2022-08-26T12:36:42.329Z,29.35
2022-08-26T12:39:15.854Z,29.47
2022-08-26T12:41:53.903Z,29.60
2022-08-26T12:44:53.263Z,29.73
2022-08-26T12:47:42.052Z,29.88
2022-08-26T12:50:19.577Z,30.01
2022-08-26T12:53:00.548Z,30.15
2022-08-26T12:55:40.118Z,30.31
2022-08-26T12:58:27.705Z,30.36
2022-08-26T13:00:58.443Z,30.48
2022-08-26T13:03:38.306Z,30.54
2022-08-26T13:06:16.146Z,30.76
2022-08-26T13:08:47.754Z,30.89
2022-08-26T13:11:20.406Z,31.03
2022-08-26T13:13:51.712Z,31.09
2022-08-26T13:16:21.366Z,31.23
2022-08-26T13:18:51.623Z,31.38
2022-08-26T13:21:22.710Z,31.41
2022-08-26T13:23:52.993Z,31.43
2022-08-26T13:26:21.773Z,31.46
2022-08-26T13:29:01.703Z,31.58
2022-08-26T13:31:32.424Z,31.67
2022-08-26T13:34:02.345Z,31.69
2022-08-26T13:36:30.914Z,31.61
2022-08-26T13:39:00.625Z,31.43
2022-08-26T13:41:29.822Z,31.29
2022-08-26T13:43:59.605Z,31.41
2022-08-26T13:46:28.763Z,31.56
2022-08-26T13:48:58.199Z,31.67
2022-08-26T13:51:28.320Z,31.76
2022-08-26T13:53:57.322Z,31.94
2022-08-26T13:56:29.795Z,32.02
2022-08-26T13:58:59.536Z,32.14
2022-08-26T14:01:29.383Z,32.25
2022-08-26T14:03:57.908Z,32.28
2022-08-26T14:06:26.523Z,32.33
2022-08-26T14:08:54.922Z,32.27
2022-08-26T14:11:24.864Z,32.13
2022-08-26T14:13:54.785Z,31.98
2022-08-26T14:16:27.503Z,31.91
2022-08-26T14:18:56.184Z,31.75
2022-08-26T14:21:25.956Z,31.62
2022-08-26T14:23:59.003Z,31.56
2022-08-26T14:26:30.091Z,31.56
2022-08-26T14:29:00.867Z,31.54
2022-08-26T14:31:31.784Z,31.51
2022-08-26T14:34:05.284Z,31.51
2022-08-26T14:36:35.230Z,31.51
2022-08-26T14:39:06.591Z,31.42
2022-08-26T14:41:37.730Z,31.40
2022-08-26T14:44:12.728Z,31.39
2022-08-26T14:46:46.435Z,31.37
2022-08-26T14:49:15.458Z,31.31
2022-08-26T14:51:44.035Z,31.28
2022-08-26T14:54:13.109Z,31.24
2022-08-26T14:56:47.603Z,31.22
2022-08-26T14:59:20.666Z,31.18
2022-08-26T15:01:49.808Z,31.13
2022-08-26T15:04:18.594Z,31.13
2022-08-26T15:06:47.207Z,31.10
2022-08-26T15:09:16.298Z,31.03
2022-08-26T15:11:44.799Z,30.97
2022-08-26T15:14:19.176Z,30.97
2022-08-26T15:16:48.822Z,30.92
2022-08-26T15:19:18.020Z,30.87
2022-08-26T15:21:47.353Z,30.82
2022-08-26T15:24:18.601Z,30.79
2022-08-26T15:26:49.714Z,30.76
2022-08-26T15:29:20.092Z,30.73
2022-08-26T15:31:49.201Z,30.63
2022-08-26T15:34:18.155Z,30.53
2022-08-26T15:36:48.877Z,30.46
2022-08-26T15:39:18.576Z,30.42
2022-08-26T15:41:48.140Z,30.39
2022-08-26T15:44:19.239Z,30.39
2022-08-26T15:46:51.225Z,30.37
2022-08-26T15:49:22.286Z,30.30
2022-08-26T15:51:51.411Z,30.26
2022-08-26T15:54:23.108Z,30.21
2022-08-26T15:56:52.214Z,30.14
2022-08-26T15:59:23.223Z,29.69
2022-08-26T16:01:52.640Z,29.30
2022-08-26T16:04:21.506Z,29.07
2022-08-26T16:06:52.178Z,28.28
2022-08-26T16:09:24.306Z,28.14
2022-08-26T16:11:53.162Z,27.90
2022-08-26T16:14:24.038Z,27.36
2022-08-26T16:16:53.348Z,26.88
2022-08-26T16:19:22.186Z,26.39
2022-08-26T16:21:51.500Z,25.87
2022-08-26T16:24:24.820Z,25.60
2022-08-26T16:26:55.856Z,25.22
2022-08-26T16:29:25.740Z,25.29
2022-08-26T16:31:54.794Z,25.22
2022-08-26T16:34:23.962Z,25.22
2022-08-26T16:36:53.012Z,24.76
2022-08-26T16:39:21.326Z,24.43
2022-08-26T16:41:49.646Z,24.18
2022-08-26T16:44:18.158Z,23.97
2022-08-26T16:46:48.047Z,23.85
2022-08-26T16:49:16.436Z,23.95
2022-08-26T16:51:45.156Z,23.87
2022-08-26T16:54:13.796Z,23.94
2022-08-26T16:56:42.325Z,23.94
2022-08-26T16:59:12.174Z,23.80
2022-08-26T17:01:40.704Z,23.67
2022-08-26T17:04:10.473Z,23.41
2022-08-26T17:06:39.167Z,23.22
2022-08-26T17:09:07.700Z,22.95
2022-08-26T17:11:36.563Z,22.91
2022-08-26T17:14:05.330Z,22.96
2022-08-26T17:16:34.294Z,22.80
2022-08-26T17:19:04.469Z,22.81
2022-08-26T17:21:36.625Z,22.92
2022-08-26T17:24:06.591Z,22.95
2022-08-26T17:26:35.820Z,22.98
2022-08-26T17:29:04.801Z,22.91
2022-08-26T17:31:33.300Z,22.99
2022-08-26T17:34:01.883Z,23.02
2022-08-26T17:36:30.328Z,23.13
2022-08-26T17:39:00.255Z,22.93
2022-08-26T17:41:28.856Z,22.80
2022-08-26T17:43:57.671Z,22.70
2022-08-26T17:46:26.666Z,22.62
2022-08-26T17:48:55.471Z,22.63
2022-08-26T17:51:23.890Z,22.67
2022-08-26T17:53:53.320Z,22.76
2022-08-26T17:56:26.057Z,22.77
2022-08-26T17:58:56.914Z,22.80
2022-08-26T18:01:27.952Z,22.77
2022-08-26T18:04:00.371Z,22.66
2022-08-26T18:06:30.876Z,22.68
2022-08-26T18:08:59.919Z,22.74
2022-08-26T18:11:31.221Z,22.78
2022-08-26T18:14:00.462Z,22.81
2022-08-26T18:16:31.827Z,22.78
2022-08-26T18:19:02.156Z,22.58
2022-08-26T18:21:30.802Z,22.26
2022-08-26T18:23:59.281Z,22.14
2022-08-26T18:26:32.593Z,22.24
2022-08-26T18:29:01.782Z,22.26
2022-08-26T18:31:31.610Z,22.36
2022-08-26T18:34:00.801Z,22.46
2022-08-26T18:36:32.753Z,22.41
2022-08-26T18:39:02.262Z,22.45
2022-08-26T18:41:35.809Z,22.48
2022-08-26T18:44:04.961Z,22.53
2022-08-26T18:46:33.489Z,22.48
2022-08-26T18:49:02.018Z,22.28
2022-08-26T18:51:34.057Z,21.93
2022-08-26T18:54:05.538Z,21.86
2022-08-26T18:56:37.387Z,21.85
2022-08-26T18:59:07.879Z,21.89
2022-08-26T19:01:39.020Z,21.97
2022-08-26T19:04:09.310Z,22.01
2022-08-26T19:06:48.377Z,22.08
2022-08-26T19:09:17.965Z,22.03
2022-08-26T19:11:49.618Z,22.04
2022-08-26T19:14:19.281Z,21.96
2022-08-26T19:16:52.352Z,21.92
2022-08-26T19:19:23.850Z,21.85
2022-08-26T19:21:54.421Z,21.83
2022-08-26T19:24:27.396Z,21.86
2022-08-26T19:27:01.160Z,21.87
2022-08-26T19:29:32.188Z,21.91
2022-08-26T19:32:01.905Z,21.91
2022-08-26T19:34:30.532Z,21.93
2022-08-26T19:36:59.320Z,21.95
2022-08-26T19:39:28.165Z,21.93
2022-08-26T19:41:59.013Z,21.90
2022-08-26T19:44:44.914Z,21.95
2022-08-26T19:47:14.018Z,21.91
2022-08-26T19:49:42.490Z,21.81
2022-08-26T19:52:12.168Z,21.77
2022-08-26T19:54:41.420Z,21.69
2022-08-26T19:57:11.272Z,21.60
2022-08-26T19:59:40.184Z,21.55
2022-08-26T20:02:11.001Z,21.51
2022-08-26T20:04:41.649Z,21.44
2022-08-26T20:07:14.221Z,21.34
2022-08-26T20:09:48.038Z,21.12
2022-08-26T20:12:18.650Z,21.09
2022-08-26T20:14:47.101Z,20.89
2022-08-26T20:17:16.970Z,20.88
2022-08-26T20:20:02.863Z,20.86
2022-08-26T20:22:31.586Z,20.89
2022-08-26T20:25:00.536Z,20.94
2022-08-26T20:27:35.561Z,20.96
2022-08-26T20:30:10.138Z,20.95
2022-08-26T20:32:39.398Z,20.96
2022-08-26T20:35:10.817Z,20.94
2022-08-26T20:37:40.159Z,20.96
2022-08-26T20:40:11.255Z,20.97
2022-08-26T20:42:41.032Z,20.99
2022-08-26T20:45:10.678Z,21.01
2022-08-26T20:47:39.105Z,21.03
2022-08-26T20:50:09.133Z,21.07
2022-08-26T20:52:37.669Z,21.06
2022-08-26T20:55:07.362Z,21.04
2022-08-26T20:57:35.797Z,21.08
2022-08-26T21:00:07.455Z,21.10
2022-08-26T21:02:36.889Z,21.05
2022-08-26T21:05:06.714Z,21.02
2022-08-26T21:07:35.942Z,20.95
2022-08-26T21:10:04.973Z,20.84
2022-08-26T21:12:33.564Z,20.77
2022-08-26T21:15:02.042Z,20.68
2022-08-26T21:17:32.289Z,20.71
2022-08-26T21:20:00.929Z,20.69
2022-08-26T21:22:30.648Z,20.65
2022-08-26T21:24:59.092Z,20.65
2022-08-26T21:27:27.427Z,20.67
2022-08-26T21:29:56.964Z,20.70
2022-08-26T21:32:25.317Z,20.65
2022-08-26T21:34:57.538Z,20.67
2022-08-26T21:37:27.868Z,20.68
2022-08-26T21:39:57.883Z,20.69
2022-08-26T21:42:27.415Z,20.71
2022-08-26T21:44:55.883Z,20.72
2022-08-26T21:47:24.432Z,20.72
2022-08-26T21:49:53.207Z,20.70
2022-08-26T21:52:23.067Z,20.70
2022-08-26T21:54:51.646Z,20.68
2022-08-26T21:57:20.963Z,20.67
2022-08-26T21:59:49.275Z,20.63
2022-08-26T22:02:17.796Z,20.58
2022-08-26T22:04:48.870Z,20.51
2022-08-26T22:07:19.158Z,20.47
2022-08-26T22:09:49.632Z,20.48
2022-08-26T22:12:19.154Z,20.49
2022-08-26T22:14:48.060Z,20.49
2022-08-26T22:17:16.894Z,20.51
2022-08-26T22:19:46.473Z,20.50
2022-08-26T22:22:15.422Z,20.48
2022-08-26T22:24:44.262Z,20.46
2022-08-26T22:27:15.182Z,20.48
2022-08-26T22:29:43.685Z,20.43
2022-08-26T22:32:12.156Z,20.43
2022-08-26T22:34:41.811Z,20.43
2022-08-26T22:37:10.207Z,20.44
2022-08-26T22:39:39.179Z,20.42
2022-08-26T22:42:07.761Z,20.39
2022-08-26T22:44:37.547Z,20.40
2022-08-26T22:47:06.509Z,20.38
2022-08-26T22:49:34.921Z,20.39
2022-08-26T22:52:03.853Z,20.37
2022-08-26T22:54:32.955Z,20.37
2022-08-26T22:57:01.691Z,20.34
2022-08-26T22:59:30.042Z,20.27
2022-08-26T23:01:59.786Z,20.22
2022-08-26T23:04:28.392Z,20.18
2022-08-26T23:06:56.879Z,20.14
2022-08-26T23:09:25.273Z,20.07
2022-08-26T23:11:55.989Z,20.07
2022-08-26T23:14:25.776Z,20.07
2022-08-26T23:16:54.314Z,20.06
2022-08-26T23:19:24.659Z,19.98
2022-08-26T23:21:53.349Z,19.92
2022-08-26T23:24:22.480Z,19.97
2022-08-26T23:26:50.872Z,19.97
2022-08-26T23:29:19.588Z,19.93
2022-08-26T23:31:47.971Z,19.87
2022-08-26T23:34:34.239Z,19.88
2022-08-26T23:37:06.202Z,19.92
2022-08-26T23:39:36.487Z,19.95
2022-08-26T23:42:06.562Z,19.98
2022-08-26T23:44:35.690Z,19.95
2022-08-26T23:47:05.135Z,19.95
2022-08-26T23:49:34.258Z,19.98
2022-08-26T23:52:23.826Z,19.98
2022-08-26T23:54:52.823Z,19.99
2022-08-26T23:57:24.131Z,19.96
2022-08-26T23:59:53.029Z,19.97
